sensor_id;sensor_type;location;lat;lon;timestamp;P1;durP1;ratioP1;P2;durP2;ratioP2
75866;SDS011;64513;56.258;43.980;2023-04-03T00:00:31;7.72;;;3.85;;
75866;SDS011;64513;56.258;43.980;2023-04-03T00:02:56;7.03;;;3.67;;
75866;SDS011;64513;56.258;43.980;2023-04-03T00:05:20;7.92;;;4.05;;
75866;SDS011;64513;56.258;43.980;2023-04-03T00:07:45;6.80;;;3.92;;
75866;SDS011;64513;56.258;43.980;2023-04-03T00:10:10;8.13;;;4.30;;
75866;SDS011;64513;56.258;43.980;2023-04-03T00:12:35;7.47;;;4.10;;
75866;SDS011;64513;56.258;43.980;2023-04-03T00:14:59;7.35;;;4.00;;
75866;SDS011;64513;56.258;43.980;2023-04-03T00:17:25;8.40;;;4.10;;
75866;SDS011;64513;56.258;43.980;2023-04-03T00:19:49;6.95;;;4.05;;
75866;SDS011;64513;56.258;43.980;2023-04-03T00:22:13;8.87;;;3.73;;
75866;SDS011;64513;56.258;43.980;2023-04-03T00:24:37;7.33;;;3.92;;
75866;SDS011;64513;56.258;43.980;2023-04-03T00:27:01;8.78;;;4.85;;
75866;SDS011;64513;56.258;43.980;2023-04-03T00:29:25;9.65;;;4.67;;
75866;SDS011;64513;56.258;43.980;2023-04-03T00:31:49;11.08;;;5.28;;
75866;SDS011;64513;56.258;43.980;2023-04-03T00:34:13;9.90;;;4.30;;
75866;SDS011;64513;56.258;43.980;2023-04-03T00:36:38;9.65;;;4.65;;
75866;SDS011;64513;56.258;43.980;2023-04-03T00:39:02;10.53;;;5.10;;
75866;SDS011;64513;56.258;43.980;2023-04-03T00:41:26;10.03;;;4.35;;
75866;SDS011;64513;56.258;43.980;2023-04-03T00:43:50;10.15;;;5.05;;
75866;SDS011;64513;56.258;43.980;2023-04-03T00:46:14;10.73;;;5.00;;
75866;SDS011;64513;56.258;43.980;2023-04-03T00:48:39;10.55;;;5.45;;
75866;SDS011;64513;56.258;43.980;2023-04-03T00:51:07;11.30;;;5.15;;
75866;SDS011;64513;56.258;43.980;2023-04-03T00:56:19;14.63;;;6.45;;
75866;SDS011;64513;56.258;43.980;2023-04-03T00:59:19;10.80;;;5.70;;
75866;SDS011;64513;56.258;43.980;2023-04-03T01:01:31;14.38;;;6.90;;
75866;SDS011;64513;56.258;43.980;2023-04-03T01:03:56;15.48;;;6.95;;
75866;SDS011;64513;56.258;43.980;2023-04-03T01:06:24;13.50;;;7.00;;
75866;SDS011;64513;56.258;43.980;2023-04-03T01:08:52;12.35;;;6.58;;
75866;SDS011;64513;56.258;43.980;2023-04-03T01:11:18;13.90;;;6.27;;
75866;SDS011;64513;56.258;43.980;2023-04-03T01:13:42;14.60;;;6.67;;
75866;SDS011;64513;56.258;43.980;2023-04-03T01:16:06;16.05;;;6.72;;
75866;SDS011;64513;56.258;43.980;2023-04-03T01:18:30;11.57;;;5.60;;
75866;SDS011;64513;56.258;43.980;2023-04-03T01:27:07;11.78;;;6.03;;
75866;SDS011;64513;56.258;43.980;2023-04-03T01:29:33;13.28;;;5.37;;
75866;SDS011;64513;56.258;43.980;2023-04-03T01:31:59;11.35;;;5.60;;
75866;SDS011;64513;56.258;43.980;2023-04-03T01:34:24;13.28;;;6.40;;
75866;SDS011;64513;56.258;43.980;2023-04-03T01:36:49;11.63;;;5.90;;
75866;SDS011;64513;56.258;43.980;2023-04-03T01:39:13;11.10;;;6.15;;
75866;SDS011;64513;56.258;43.980;2023-04-03T01:41:38;10.98;;;5.33;;
75866;SDS011;64513;56.258;43.980;2023-04-03T01:44:02;11.63;;;5.70;;
75866;SDS011;64513;56.258;43.980;2023-04-03T01:46:26;13.78;;;5.75;;
75866;SDS011;64513;56.258;43.980;2023-04-03T01:48:50;10.53;;;5.17;;
75866;SDS011;64513;56.258;43.980;2023-04-03T01:51:16;11.40;;;5.85;;
75866;SDS011;64513;56.258;43.980;2023-04-03T01:53:40;12.15;;;5.95;;
75866;SDS011;64513;56.258;43.980;2023-04-03T01:56:04;10.30;;;5.35;;
75866;SDS011;64513;56.258;43.980;2023-04-03T01:58:29;10.63;;;5.55;;
75866;SDS011;64513;56.258;43.980;2023-04-03T02:00:53;7.83;;;4.40;;
75866;SDS011;64513;56.258;43.980;2023-04-03T02:03:17;9.10;;;4.47;;
75866;SDS011;64513;56.258;43.980;2023-04-03T02:05:41;10.08;;;5.05;;
75866;SDS011;64513;56.258;43.980;2023-04-03T02:08:06;10.53;;;4.67;;
75866;SDS011;64513;56.258;43.980;2023-04-03T02:10:30;11.18;;;4.62;;
75866;SDS011;64513;56.258;43.980;2023-04-03T02:12:55;11.20;;;4.60;;
75866;SDS011;64513;56.258;43.980;2023-04-03T02:15:19;9.58;;;4.80;;
75866;SDS011;64513;56.258;43.980;2023-04-03T02:17:44;9.48;;;4.67;;
75866;SDS011;64513;56.258;43.980;2023-04-03T02:20:08;10.40;;;4.15;;
75866;SDS011;64513;56.258;43.980;2023-04-03T02:22:33;11.20;;;5.00;;
75866;SDS011;64513;56.258;43.980;2023-04-03T02:24:57;8.33;;;4.03;;
75866;SDS011;64513;56.258;43.980;2023-04-03T02:27:21;10.85;;;4.85;;
75866;SDS011;64513;56.258;43.980;2023-04-03T02:29:45;12.55;;;4.87;;
75866;SDS011;64513;56.258;43.980;2023-04-03T02:32:09;9.55;;;4.58;;
75866;SDS011;64513;56.258;43.980;2023-04-03T02:34:33;10.65;;;4.65;;
75866;SDS011;64513;56.258;43.980;2023-04-03T02:36:57;9.70;;;4.40;;
75866;SDS011;64513;56.258;43.980;2023-04-03T02:39:22;9.00;;;4.60;;
75866;SDS011;64513;56.258;43.980;2023-04-03T02:41:46;8.38;;;4.12;;
75866;SDS011;64513;56.258;43.980;2023-04-03T02:44:10;7.97;;;4.03;;
75866;SDS011;64513;56.258;43.980;2023-04-03T02:46:35;12.07;;;4.17;;
75866;SDS011;64513;56.258;43.980;2023-04-03T02:49:00;7.97;;;4.37;;
75866;SDS011;64513;56.258;43.980;2023-04-03T02:51:24;11.03;;;5.08;;
75866;SDS011;64513;56.258;43.980;2023-04-03T02:53:49;11.18;;;4.85;;
75866;SDS011;64513;56.258;43.980;2023-04-03T02:56:13;8.05;;;4.17;;
75866;SDS011;64513;56.258;43.980;2023-04-03T02:58:37;9.20;;;4.28;;
75866;SDS011;64513;56.258;43.980;2023-04-03T03:01:02;8.63;;;4.40;;
75866;SDS011;64513;56.258;43.980;2023-04-03T03:03:26;9.33;;;4.58;;
75866;SDS011;64513;56.258;43.980;2023-04-03T03:06:00;9.68;;;4.83;;
75866;SDS011;64513;56.258;43.980;2023-04-03T03:08:36;11.70;;;5.12;;
75866;SDS011;64513;56.258;43.980;2023-04-03T03:11:01;10.23;;;4.75;;
75866;SDS011;64513;56.258;43.980;2023-04-03T03:13:26;9.97;;;4.77;;
75866;SDS011;64513;56.258;43.980;2023-04-03T03:15:50;8.85;;;4.65;;
75866;SDS011;64513;56.258;43.980;2023-04-03T03:18:14;9.18;;;4.72;;
75866;SDS011;64513;56.258;43.980;2023-04-03T03:20:38;8.68;;;5.17;;
75866;SDS011;64513;56.258;43.980;2023-04-03T03:23:03;12.07;;;5.80;;
75866;SDS011;64513;56.258;43.980;2023-04-03T03:25:27;11.67;;;5.60;;
75866;SDS011;64513;56.258;43.980;2023-04-03T03:27:51;13.15;;;5.95;;
75866;SDS011;64513;56.258;43.980;2023-04-03T03:30:15;10.80;;;5.70;;
75866;SDS011;64513;56.258;43.980;2023-04-03T03:32:40;10.13;;;5.12;;
75866;SDS011;64513;56.258;43.980;2023-04-03T03:35:04;9.75;;;4.70;;
75866;SDS011;64513;56.258;43.980;2023-04-03T03:37:28;9.80;;;5.33;;
75866;SDS011;64513;56.258;43.980;2023-04-03T03:39:53;9.15;;;4.92;;
75866;SDS011;64513;56.258;43.980;2023-04-03T03:42:17;12.03;;;5.33;;
75866;SDS011;64513;56.258;43.980;2023-04-03T03:44:41;13.22;;;5.35;;
75866;SDS011;64513;56.258;43.980;2023-04-03T03:47:05;10.50;;;5.12;;
75866;SDS011;64513;56.258;43.980;2023-04-03T03:49:31;14.50;;;5.70;;
75866;SDS011;64513;56.258;43.980;2023-04-03T03:51:55;11.78;;;5.37;;
75866;SDS011;64513;56.258;43.980;2023-04-03T03:54:20;11.40;;;5.97;;
75866;SDS011;64513;56.258;43.980;2023-04-03T03:56:44;10.82;;;5.30;;
75866;SDS011;64513;56.258;43.980;2023-04-03T03:59:10;14.75;;;6.60;;
75866;SDS011;64513;56.258;43.980;2023-04-03T04:01:54;10.80;;;5.70;;
75866;SDS011;64513;56.258;43.980;2023-04-03T04:04:18;9.78;;;5.17;;
75866;SDS011;64513;56.258;43.980;2023-04-03T04:06:44;10.65;;;6.05;;
75866;SDS011;64513;56.258;43.980;2023-04-03T04:09:08;11.88;;;5.47;;
75866;SDS011;64513;56.258;43.980;2023-04-03T04:11:33;8.78;;;5.22;;
75866;SDS011;64513;56.258;43.980;2023-04-03T04:13:57;13.57;;;6.13;;
75866;SDS011;64513;56.258;43.980;2023-04-03T04:16:21;11.55;;;4.92;;
75866;SDS011;64513;56.258;43.980;2023-04-03T04:18:45;10.88;;;5.65;;
75866;SDS011;64513;56.258;43.980;2023-04-03T04:21:09;11.48;;;5.50;;
75866;SDS011;64513;56.258;43.980;2023-04-03T04:23:34;9.40;;;5.25;;
75866;SDS011;64513;56.258;43.980;2023-04-03T04:25:58;13.60;;;6.43;;
75866;SDS011;64513;56.258;43.980;2023-04-03T04:28:22;12.03;;;6.17;;
75866;SDS011;64513;56.258;43.980;2023-04-03T04:30:46;13.32;;;6.78;;
75866;SDS011;64513;56.258;43.980;2023-04-03T04:33:10;13.15;;;6.03;;
75866;SDS011;64513;56.258;43.980;2023-04-03T04:35:35;10.18;;;6.10;;
75866;SDS011;64513;56.258;43.980;2023-04-03T04:38:00;10.77;;;6.03;;
75866;SDS011;64513;56.258;43.980;2023-04-03T04:40:24;13.72;;;6.22;;
75866;SDS011;64513;56.258;43.980;2023-04-03T04:42:49;13.20;;;6.10;;
75866;SDS011;64513;56.258;43.980;2023-04-03T04:45:14;12.28;;;5.90;;
75866;SDS011;64513;56.258;43.980;2023-04-03T04:47:38;11.48;;;5.97;;
75866;SDS011;64513;56.258;43.980;2023-04-03T04:50:03;11.90;;;6.63;;
75866;SDS011;64513;56.258;43.980;2023-04-03T04:52:27;10.93;;;6.45;;
75866;SDS011;64513;56.258;43.980;2023-04-03T04:54:52;13.60;;;6.33;;
75866;SDS011;64513;56.258;43.980;2023-04-03T04:57:16;12.85;;;6.45;;
75866;SDS011;64513;56.258;43.980;2023-04-03T04:59:40;14.23;;;6.67;;
75866;SDS011;64513;56.258;43.980;2023-04-03T05:02:04;11.90;;;6.20;;
75866;SDS011;64513;56.258;43.980;2023-04-03T05:04:28;11.90;;;5.87;;
75866;SDS011;64513;56.258;43.980;2023-04-03T05:06:53;11.10;;;5.50;;
75866;SDS011;64513;56.258;43.980;2023-04-03T05:09:17;10.58;;;5.55;;
75866;SDS011;64513;56.258;43.980;2023-04-03T05:11:42;10.48;;;5.33;;
75866;SDS011;64513;56.258;43.980;2023-04-03T05:14:06;9.80;;;5.80;;
75866;SDS011;64513;56.258;43.980;2023-04-03T05:16:30;10.30;;;5.42;;
75866;SDS011;64513;56.258;43.980;2023-04-03T05:18:55;9.05;;;5.53;;
75866;SDS011;64513;56.258;43.980;2023-04-03T05:21:19;9.68;;;5.50;;
75866;SDS011;64513;56.258;43.980;2023-04-03T05:23:45;11.20;;;5.70;;
75866;SDS011;64513;56.258;43.980;2023-04-03T05:26:09;12.50;;;6.00;;
75866;SDS011;64513;56.258;43.980;2023-04-03T05:28:33;10.40;;;5.93;;
75866;SDS011;64513;56.258;43.980;2023-04-03T05:30:58;10.65;;;5.65;;
75866;SDS011;64513;56.258;43.980;2023-04-03T05:33:22;10.10;;;5.28;;
75866;SDS011;64513;56.258;43.980;2023-04-03T05:35:47;10.68;;;4.90;;
75866;SDS011;64513;56.258;43.980;2023-04-03T05:38:12;9.48;;;5.08;;
75866;SDS011;64513;56.258;43.980;2023-04-03T05:40:36;11.00;;;5.47;;
75866;SDS011;64513;56.258;43.980;2023-04-03T05:43:00;10.30;;;5.10;;
75866;SDS011;64513;56.258;43.980;2023-04-03T05:45:25;9.10;;;4.87;;
75866;SDS011;64513;56.258;43.980;2023-04-03T05:47:49;8.88;;;4.78;;
75866;SDS011;64513;56.258;43.980;2023-04-03T05:50:13;10.50;;;5.12;;
75866;SDS011;64513;56.258;43.980;2023-04-03T05:52:38;10.67;;;5.13;;
75866;SDS011;64513;56.258;43.980;2023-04-03T05:55:05;11.40;;;5.10;;
75866;SDS011;64513;56.258;43.980;2023-04-03T05:57:30;13.25;;;5.62;;
75866;SDS011;64513;56.258;43.980;2023-04-03T05:59:54;16.17;;;5.92;;
75866;SDS011;64513;56.258;43.980;2023-04-03T06:02:19;14.43;;;5.25;;
75866;SDS011;64513;56.258;43.980;2023-04-03T06:04:46;11.13;;;5.20;;
75866;SDS011;64513;56.258;43.980;2023-04-03T06:07:12;14.43;;;5.47;;
75866;SDS011;64513;56.258;43.980;2023-04-03T06:09:39;10.13;;;4.95;;
75866;SDS011;64513;56.258;43.980;2023-04-03T06:12:03;18.87;;;5.22;;
75866;SDS011;64513;56.258;43.980;2023-04-03T06:14:28;13.88;;;4.83;;
75866;SDS011;64513;56.258;43.980;2023-04-03T06:16:52;11.38;;;4.35;;
75866;SDS011;64513;56.258;43.980;2023-04-03T06:19:17;11.38;;;4.62;;
75866;SDS011;64513;56.258;43.980;2023-04-03T06:21:41;10.20;;;4.60;;
75866;SDS011;64513;56.258;43.980;2023-04-03T06:24:05;9.53;;;4.75;;
75866;SDS011;64513;56.258;43.980;2023-04-03T06:26:30;14.25;;;4.03;;
75866;SDS011;64513;56.258;43.980;2023-04-03T06:28:54;10.13;;;4.10;;
75866;SDS011;64513;56.258;43.980;2023-04-03T06:31:18;10.28;;;4.90;;
75866;SDS011;64513;56.258;43.980;2023-04-03T06:33:42;12.18;;;4.70;;
75866;SDS011;64513;56.258;43.980;2023-04-03T06:36:07;12.47;;;4.10;;
75866;SDS011;64513;56.258;43.980;2023-04-03T06:38:33;15.37;;;4.40;;
75866;SDS011;64513;56.258;43.980;2023-04-03T06:40:57;10.82;;;4.08;;
75866;SDS011;64513;56.258;43.980;2023-04-03T06:43:22;11.18;;;4.10;;
75866;SDS011;64513;56.258;43.980;2023-04-03T06:45:46;13.80;;;4.70;;
75866;SDS011;64513;56.258;43.980;2023-04-03T06:48:11;14.45;;;4.55;;
75866;SDS011;64513;56.258;43.980;2023-04-03T06:50:35;14.98;;;4.78;;
75866;SDS011;64513;56.258;43.980;2023-04-03T06:53:00;11.57;;;4.27;;
75866;SDS011;64513;56.258;43.980;2023-04-03T06:55:24;14.40;;;4.40;;
75866;SDS011;64513;56.258;43.980;2023-04-03T06:57:48;9.68;;;4.35;;
75866;SDS011;64513;56.258;43.980;2023-04-03T07:00:13;11.22;;;4.33;;
75866;SDS011;64513;56.258;43.980;2023-04-03T07:02:37;8.28;;;4.12;;
75866;SDS011;64513;56.258;43.980;2023-04-03T07:05:01;10.20;;;4.67;;
75866;SDS011;64513;56.258;43.980;2023-04-03T07:07:26;13.08;;;4.40;;
75866;SDS011;64513;56.258;43.980;2023-04-03T07:09:51;14.67;;;4.80;;
75866;SDS011;64513;56.258;43.980;2023-04-03T07:12:15;12.40;;;4.57;;
75866;SDS011;64513;56.258;43.980;2023-04-03T07:14:39;13.40;;;4.78;;
75866;SDS011;64513;56.258;43.980;2023-04-03T07:17:04;10.08;;;4.30;;
75866;SDS011;64513;56.258;43.980;2023-04-03T07:19:28;10.88;;;4.65;;
75866;SDS011;64513;56.258;43.980;2023-04-03T07:21:54;7.83;;;4.40;;
75866;SDS011;64513;56.258;43.980;2023-04-03T07:24:18;14.00;;;4.55;;
75866;SDS011;64513;56.258;43.980;2023-04-03T07:26:42;10.35;;;4.37;;
75866;SDS011;64513;56.258;43.980;2023-04-03T07:29:06;9.13;;;3.93;;
75866;SDS011;64513;56.258;43.980;2023-04-03T07:31:31;8.87;;;4.27;;
75866;SDS011;64513;56.258;43.980;2023-04-03T07:33:55;9.53;;;4.00;;
75866;SDS011;64513;56.258;43.980;2023-04-03T07:36:20;14.55;;;4.62;;
75866;SDS011;64513;56.258;43.980;2023-04-03T07:38:45;13.15;;;4.67;;
75866;SDS011;64513;56.258;43.980;2023-04-03T07:43:54;8.38;;;4.70;;
75866;SDS011;64513;56.258;43.980;2023-04-03T07:46:18;9.18;;;4.50;;
75866;SDS011;64513;56.258;43.980;2023-04-03T07:48:43;8.90;;;4.20;;
75866;SDS011;64513;56.258;43.980;2023-04-03T07:51:07;10.83;;;4.10;;
75866;SDS011;64513;56.258;43.980;2023-04-03T07:53:31;8.43;;;4.12;;
75866;SDS011;64513;56.258;43.980;2023-04-03T07:55:58;14.05;;;4.45;;
75866;SDS011;64513;56.258;43.980;2023-04-03T07:58:23;8.20;;;3.87;;
75866;SDS011;64513;56.258;43.980;2023-04-03T08:00:47;14.90;;;4.47;;
75866;SDS011;64513;56.258;43.980;2023-04-03T08:03:12;9.78;;;3.75;;
75866;SDS011;64513;56.258;43.980;2023-04-03T08:05:39;7.40;;;3.60;;
75866;SDS011;64513;56.258;43.980;2023-04-03T08:08:04;8.37;;;3.67;;
75866;SDS011;64513;56.258;43.980;2023-04-03T08:10:30;7.75;;;3.72;;
75866;SDS011;64513;56.258;43.980;2023-04-03T08:12:55;7.83;;;3.47;;
75866;SDS011;64513;56.258;43.980;2023-04-03T08:15:19;9.90;;;3.80;;
75866;SDS011;64513;56.258;43.980;2023-04-03T08:17:43;9.63;;;3.80;;
75866;SDS011;64513;56.258;43.980;2023-04-03T08:20:07;8.63;;;3.83;;
75866;SDS011;64513;56.258;43.980;2023-04-03T08:22:33;7.33;;;4.00;;
75866;SDS011;64513;56.258;43.980;2023-04-03T08:24:57;10.03;;;4.40;;
75866;SDS011;64513;56.258;43.980;2023-04-03T08:27:22;7.95;;;3.87;;
75866;SDS011;64513;56.258;43.980;2023-04-03T08:29:47;8.95;;;3.95;;
75866;SDS011;64513;56.258;43.980;2023-04-03T08:32:11;12.68;;;4.33;;
75866;SDS011;64513;56.258;43.980;2023-04-03T08:34:36;9.95;;;4.12;;
75866;SDS011;64513;56.258;43.980;2023-04-03T08:37:01;12.28;;;4.50;;
75866;SDS011;64513;56.258;43.980;2023-04-03T08:39:25;14.83;;;4.00;;
75866;SDS011;64513;56.258;43.980;2023-04-03T08:41:49;10.63;;;3.53;;
75866;SDS011;64513;56.258;43.980;2023-04-03T08:52:33;8.98;;;3.65;;
75866;SDS011;64513;56.258;43.980;2023-04-03T08:55:20;10.28;;;3.90;;
75866;SDS011;64513;56.258;43.980;2023-04-03T08:58:03;8.68;;;3.80;;
75866;SDS011;64513;56.258;43.980;2023-04-03T09:00:48;11.87;;;3.50;;
75866;SDS011;64513;56.258;43.980;2023-04-03T09:03:15;10.72;;;3.50;;
75866;SDS011;64513;56.258;43.980;2023-04-03T09:14:38;12.03;;;4.05;;
75866;SDS011;64513;56.258;43.980;2023-04-03T09:29:02;12.43;;;4.20;;
75866;SDS011;64513;56.258;43.980;2023-04-03T09:34:47;12.63;;;3.98;;
75866;SDS011;64513;56.258;43.980;2023-04-03T09:37:00;7.80;;;3.50;;
75866;SDS011;64513;56.258;43.980;2023-04-03T09:42:32;8.05;;;3.10;;
75866;SDS011;64513;56.258;43.980;2023-04-03T09:44:58;8.10;;;3.40;;
75866;SDS011;64513;56.258;43.980;2023-04-03T09:52:55;7.40;;;2.90;;
75866;SDS011;64513;56.258;43.980;2023-04-03T09:55:20;11.05;;;3.27;;
75866;SDS011;64513;56.258;43.980;2023-04-03T09:58:06;8.18;;;2.50;;
75866;SDS011;64513;56.258;43.980;2023-04-03T10:00:34;9.20;;;3.33;;
75866;SDS011;64513;56.258;43.980;2023-04-03T10:03:00;6.17;;;2.85;;
75866;SDS011;64513;56.258;43.980;2023-04-03T10:05:27;9.23;;;2.80;;
75866;SDS011;64513;56.258;43.980;2023-04-03T10:10:41;7.05;;;3.02;;
75866;SDS011;64513;56.258;43.980;2023-04-03T10:13:27;7.65;;;2.80;;
75866;SDS011;64513;56.258;43.980;2023-04-03T10:18:39;8.30;;;2.73;;
75866;SDS011;64513;56.258;43.980;2023-04-03T10:27:33;7.17;;;2.80;;
75866;SDS011;64513;56.258;43.980;2023-04-03T10:45:24;10.40;;;2.75;;
75866;SDS011;64513;56.258;43.980;2023-04-03T10:57:19;9.20;;;2.33;;
75866;SDS011;64513;56.258;43.980;2023-04-03T10:59:46;7.75;;;2.87;;
75866;SDS011;64513;56.258;43.980;2023-04-03T11:02:14;7.83;;;2.85;;
75866;SDS011;64513;56.258;43.980;2023-04-03T11:07:45;7.17;;;2.90;;
75866;SDS011;64513;56.258;43.980;2023-04-03T11:13:17;6.95;;;2.47;;
75866;SDS011;64513;56.258;43.980;2023-04-03T11:15:43;6.37;;;2.20;;
75866;SDS011;64513;56.258;43.980;2023-04-03T11:21:14;8.45;;;2.40;;
75866;SDS011;64513;56.258;43.980;2023-04-03T11:23:57;13.58;;;2.60;;
75866;SDS011;64513;56.258;43.980;2023-04-03T11:28:53;5.83;;;2.25;;
75866;SDS011;64513;56.258;43.980;2023-04-03T11:39:38;9.65;;;3.08;;
75866;SDS011;64513;56.258;43.980;2023-04-03T11:51:00;5.53;;;2.35;;
75866;SDS011;64513;56.258;43.980;2023-04-03T11:53:44;5.15;;;2.30;;
75866;SDS011;64513;56.258;43.980;2023-04-03T12:01:58;13.18;;;2.60;;
75866;SDS011;64513;56.258;43.980;2023-04-03T12:04:24;6.42;;;2.30;;
75866;SDS011;64513;56.258;43.980;2023-04-03T12:12:37;10.53;;;2.10;;
75866;SDS011;64513;56.258;43.980;2023-04-03T12:14:52;6.05;;;2.30;;
75866;SDS011;64513;56.258;43.980;2023-04-03T12:17:19;5.97;;;2.00;;
75866;SDS011;64513;56.258;43.980;2023-04-03T12:19:43;8.10;;;2.30;;
75866;SDS011;64513;56.258;43.980;2023-04-03T12:24:36;8.90;;;2.40;;
75866;SDS011;64513;56.258;43.980;2023-04-03T12:27:05;6.00;;;1.92;;
75866;SDS011;64513;56.258;43.980;2023-04-03T12:47:55;5.30;;;2.35;;
75866;SDS011;64513;56.258;43.980;2023-04-03T12:50:21;6.30;;;2.60;;
75866;SDS011;64513;56.258;43.980;2023-04-03T12:53:06;6.37;;;2.20;;
75866;SDS011;64513;56.258;43.980;2023-04-03T12:58:56;8.10;;;2.70;;
75866;SDS011;64513;56.258;43.980;2023-04-03T13:01:40;8.80;;;2.58;;
75866;SDS011;64513;56.258;43.980;2023-04-03T13:04:05;7.67;;;2.70;;
75866;SDS011;64513;56.258;43.980;2023-04-03T13:17:28;6.58;;;2.02;;
75866;SDS011;64513;56.258;43.980;2023-04-03T13:19:53;7.70;;;2.10;;
75866;SDS011;64513;56.258;43.980;2023-04-03T13:25:05;6.70;;;2.25;;
75866;SDS011;64513;56.258;43.980;2023-04-03T13:27:32;5.95;;;2.27;;
75866;SDS011;64513;56.258;43.980;2023-04-03T13:29:57;7.35;;;1.90;;
75866;SDS011;64513;56.258;43.980;2023-04-03T13:32:23;9.37;;;2.50;;
75866;SDS011;64513;56.258;43.980;2023-04-03T13:34:49;6.97;;;2.17;;
75866;SDS011;64513;56.258;43.980;2023-04-03T13:42:42;6.97;;;1.82;;
75866;SDS011;64513;56.258;43.980;2023-04-03T13:47:52;8.65;;;1.90;;
75866;SDS011;64513;56.258;43.980;2023-04-03T13:50:19;9.00;;;2.00;;
75866;SDS011;64513;56.258;43.980;2023-04-03T14:01:21;8.58;;;2.22;;
75866;SDS011;64513;56.258;43.980;2023-04-03T14:06:51;6.22;;;1.90;;
75866;SDS011;64513;56.258;43.980;2023-04-03T14:09:16;10.25;;;2.02;;
75866;SDS011;64513;56.258;43.980;2023-04-03T14:11:42;7.50;;;2.20;;
75866;SDS011;64513;56.258;43.980;2023-04-03T14:16:55;5.45;;;2.27;;
75866;SDS011;64513;56.258;43.980;2023-04-03T14:24:51;7.40;;;2.10;;
75866;SDS011;64513;56.258;43.980;2023-04-03T14:33:06;7.37;;;2.10;;
75866;SDS011;64513;56.258;43.980;2023-04-03T14:35:32;6.83;;;2.12;;
75866;SDS011;64513;56.258;43.980;2023-04-03T14:37:56;5.57;;;2.30;;
75866;SDS011;64513;56.258;43.980;2023-04-03T14:40:22;8.30;;;1.82;;
75866;SDS011;64513;56.258;43.980;2023-04-03T14:42:47;9.90;;;2.27;;
75866;SDS011;64513;56.258;43.980;2023-04-03T14:45:12;6.65;;;2.30;;
75866;SDS011;64513;56.258;43.980;2023-04-03T14:47:39;5.03;;;2.05;;
75866;SDS011;64513;56.258;43.980;2023-04-03T14:50:23;6.87;;;1.93;;
75866;SDS011;64513;56.258;43.980;2023-04-03T14:52:49;9.00;;;1.90;;
75866;SDS011;64513;56.258;43.980;2023-04-03T14:55:16;7.33;;;2.27;;
75866;SDS011;64513;56.258;43.980;2023-04-03T14:57:42;9.68;;;2.25;;
75866;SDS011;64513;56.258;43.980;2023-04-03T15:00:07;10.08;;;2.35;;
75866;SDS011;64513;56.258;43.980;2023-04-03T15:05:01;8.48;;;2.20;;
75866;SDS011;64513;56.258;43.980;2023-04-03T15:07:28;8.78;;;2.62;;
75866;SDS011;64513;56.258;43.980;2023-04-03T15:09:54;9.90;;;2.17;;
75866;SDS011;64513;56.258;43.980;2023-04-03T15:12:19;9.53;;;2.27;;
75866;SDS011;64513;56.258;43.980;2023-04-03T15:14:43;12.20;;;2.90;;
75866;SDS011;64513;56.258;43.980;2023-04-03T15:17:08;12.15;;;2.95;;
75866;SDS011;64513;56.258;43.980;2023-04-03T15:19:52;7.50;;;2.60;;
75866;SDS011;64513;56.258;43.980;2023-04-03T15:22:17;8.20;;;3.25;;
75866;SDS011;64513;56.258;43.980;2023-04-03T15:24:42;10.32;;;3.37;;
75866;SDS011;64513;56.258;43.980;2023-04-03T15:27:07;12.43;;;3.07;;
75866;SDS011;64513;56.258;43.980;2023-04-03T15:29:32;8.68;;;3.25;;
75866;SDS011;64513;56.258;43.980;2023-04-03T15:31:56;12.33;;;3.42;;
75866;SDS011;64513;56.258;43.980;2023-04-03T15:34:20;10.98;;;3.27;;
75866;SDS011;64513;56.258;43.980;2023-04-03T15:36:44;10.23;;;3.52;;
75866;SDS011;64513;56.258;43.980;2023-04-03T15:39:08;10.90;;;3.83;;
75866;SDS011;64513;56.258;43.980;2023-04-03T15:41:33;11.53;;;3.67;;
75866;SDS011;64513;56.258;43.980;2023-04-03T15:43:57;8.45;;;3.55;;
75866;SDS011;64513;56.258;43.980;2023-04-03T15:46:21;15.05;;;3.50;;
75866;SDS011;64513;56.258;43.980;2023-04-03T15:48:45;10.48;;;3.22;;
75866;SDS011;64513;56.258;43.980;2023-04-03T15:51:10;13.97;;;3.97;;
75866;SDS011;64513;56.258;43.980;2023-04-03T15:53:34;10.55;;;3.62;;
75866;SDS011;64513;56.258;43.980;2023-04-03T15:55:58;10.68;;;3.37;;
75866;SDS011;64513;56.258;43.980;2023-04-03T15:58:22;13.50;;;3.52;;
75866;SDS011;64513;56.258;43.980;2023-04-03T16:00:46;10.20;;;3.05;;
75866;SDS011;64513;56.258;43.980;2023-04-03T16:03:11;11.63;;;3.53;;
75866;SDS011;64513;56.258;43.980;2023-04-03T16:05:56;11.35;;;3.50;;
75866;SDS011;64513;56.258;43.980;2023-04-03T16:08:20;10.55;;;3.20;;
75866;SDS011;64513;56.258;43.980;2023-04-03T16:10:45;9.20;;;3.40;;
75866;SDS011;64513;56.258;43.980;2023-04-03T16:13:09;10.10;;;3.10;;
75866;SDS011;64513;56.258;43.980;2023-04-03T16:15:34;11.77;;;3.60;;
75866;SDS011;64513;56.258;43.980;2023-04-03T16:17:59;9.85;;;2.80;;
75866;SDS011;64513;56.258;43.980;2023-04-03T16:20:23;12.33;;;3.62;;
75866;SDS011;64513;56.258;43.980;2023-04-03T16:22:48;9.78;;;3.55;;
75866;SDS011;64513;56.258;43.980;2023-04-03T16:25:12;11.12;;;3.50;;
75866;SDS011;64513;56.258;43.980;2023-04-03T16:27:36;10.37;;;4.27;;
75866;SDS011;64513;56.258;43.980;2023-04-03T16:30:01;17.02;;;4.70;;
75866;SDS011;64513;56.258;43.980;2023-04-03T16:32:26;11.50;;;4.60;;
75866;SDS011;64513;56.258;43.980;2023-04-03T16:34:53;15.58;;;5.15;;
75866;SDS011;64513;56.258;43.980;2023-04-03T16:37:17;13.43;;;4.90;;
75866;SDS011;64513;56.258;43.980;2023-04-03T16:39:41;14.40;;;5.27;;
75866;SDS011;64513;56.258;43.980;2023-04-03T16:42:06;11.97;;;5.53;;
75866;SDS011;64513;56.258;43.980;2023-04-03T16:44:30;12.18;;;5.20;;
75866;SDS011;64513;56.258;43.980;2023-04-03T16:46:54;14.50;;;4.92;;
75866;SDS011;64513;56.258;43.980;2023-04-03T16:49:19;10.03;;;4.97;;
75866;SDS011;64513;56.258;43.980;2023-04-03T16:51:43;15.33;;;4.83;;
75866;SDS011;64513;56.258;43.980;2023-04-03T16:54:07;18.02;;;5.10;;
75866;SDS011;64513;56.258;43.980;2023-04-03T16:56:33;12.33;;;4.70;;
75866;SDS011;64513;56.258;43.980;2023-04-03T16:58:57;12.20;;;3.30;;
75866;SDS011;64513;56.258;43.980;2023-04-03T17:01:22;10.85;;;3.40;;
75866;SDS011;64513;56.258;43.980;2023-04-03T17:03:46;8.73;;;3.97;;
75866;SDS011;64513;56.258;43.980;2023-04-03T17:06:11;9.85;;;3.80;;
75866;SDS011;64513;56.258;43.980;2023-04-03T17:08:39;8.40;;;3.42;;
75866;SDS011;64513;56.258;43.980;2023-04-03T17:11:03;11.10;;;3.83;;
75866;SDS011;64513;56.258;43.980;2023-04-03T17:13:27;10.88;;;3.85;;
75866;SDS011;64513;56.258;43.980;2023-04-03T17:15:52;10.10;;;3.83;;
75866;SDS011;64513;56.258;43.980;2023-04-03T17:18:16;15.50;;;4.05;;
75866;SDS011;64513;56.258;43.980;2023-04-03T17:20:41;11.73;;;4.37;;
75866;SDS011;64513;56.258;43.980;2023-04-03T17:23:05;12.55;;;3.42;;
75866;SDS011;64513;56.258;43.980;2023-04-03T17:25:57;10.10;;;3.50;;
75866;SDS011;64513;56.258;43.980;2023-04-03T17:28:21;10.47;;;3.47;;
75866;SDS011;64513;56.258;43.980;2023-04-03T17:30:47;8.18;;;2.77;;
75866;SDS011;64513;56.258;43.980;2023-04-03T17:33:11;12.28;;;2.75;;
75866;SDS011;64513;56.258;43.980;2023-04-03T17:35:36;9.18;;;3.35;;
75866;SDS011;64513;56.258;43.980;2023-04-03T17:38:00;8.58;;;2.90;;
75866;SDS011;64513;56.258;43.980;2023-04-03T17:40:24;8.63;;;3.00;;